Time;durP1;ratioP1;P1;durP2;ratioP2;P2;SDS_P1;SDS_P2;PMS_P1;PMS_P2;Temp;Humidity;BMP_temperature;BMP_pressure;BME280_temperature;BME280_humidity;BME280_pressure;Samples;Min_cycle;Max_cycle;Signal;HPM_P1;HPM_P2
2022/01/26 00:07:19;;;;;;;20.90;8.02;;;;;;;;;;5095606;28;20122;-66
2022/01/26 00:09:45;;;;;;;16.83;7.00;;;;;;;;;;5095604;28;20107;-66
2022/01/26 00:12:12;;;;;;;15.55;7.45;;;;;;;;;;5095469;28;20013;-66
2022/01/26 00:14:41;;;;;;;17.38;7.97;;;;;;;;;;5095921;28;20024;-68
2022/01/26 00:17:10;;;;;;;23.88;9.10;;;;;;;;;;5095583;28;20020;-66
2022/01/26 00:20:18;;;;;;;19.10;7.95;;;;;;;;;;5095167;28;20160;-66
2022/01/26 00:25:22;;;;;;;18.15;7.15;;;;;;;;;;5095483;28;20080;-66
2022/01/26 00:28:08;;;;;;;16.95;8.98;;;;;;;;;;5095160;28;20106;-66
2022/01/26 00:38:41;;;;;;;19.35;8.95;;;;;;;;;;5071496;28;20028;-66
2022/01/26 00:41:11;;;;;;;16.33;7.43;;;;;;;;;;5094721;28;20533;-66
2022/01/26 00:43:38;;;;;;;17.30;7.75;;;;;;;;;;5076954;28;20020;-66
2022/01/26 00:46:07;;;;;;;20.40;9.70;;;;;;;;;;5094912;28;20040;-65
2022/01/26 00:48:36;;;;;;;18.42;8.85;;;;;;;;;;5076283;28;20035;-66
2022/01/26 00:51:05;;;;;;;18.85;7.57;;;;;;;;;;5094911;28;20016;-66
2022/01/26 00:56:33;;;;;;;18.30;8.13;;;;;;;;;;5032540;28;20033;-66
2022/01/26 00:58:59;;;;;;;13.90;8.68;;;;;;;;;;5064365;28;20032;-66
2022/01/26 01:01:26;;;;;;;13.85;7.82;;;;;;;;;;5094488;28;20408;-66
2022/01/26 01:03:52;;;;;;;16.25;8.02;;;;;;;;;;5094667;28;20497;-66
2022/01/26 01:08:46;;;;;;;18.55;9.13;;;;;;;;;;5094615;28;20476;-66
2022/01/26 01:11:12;;;;;;;17.83;7.95;;;;;;;;;;5094533;28;20102;-66
2022/01/26 01:13:41;;;;;;;15.10;8.05;;;;;;;;;;5094545;28;20541;-66
2022/01/26 01:16:08;;;;;;;21.90;8.68;;;;;;;;;;5093962;28;20035;-66
2022/01/26 01:18:45;;;;;;;19.63;9.77;;;;;;;;;;5094567;28;20044;-66
2022/01/26 01:24:09;;;;;;;20.33;8.02;;;;;;;;;;5093974;28;20024;-66
2022/01/26 01:29:14;;;;;;;16.90;9.32;;;;;;;;;;5094209;28;20028;-66
2022/01/26 01:31:48;;;;;;;22.08;9.35;;;;;;;;;;5094177;28;20020;-66
2022/01/26 01:34:15;;;;;;;23.58;10.30;;;;;;;;;;5094239;28;20472;-66
2022/01/26 01:36:44;;;;;;;21.40;10.52;;;;;;;;;;5093861;28;20080;-66
2022/01/26 01:39:11;;;;;;;24.73;9.68;;;;;;;;;;5093985;28;20031;-66
2022/01/26 01:41:38;;;;;;;15.85;7.72;;;;;;;;;;5075816;28;20032;-66
2022/01/26 01:44:05;;;;;;;19.83;9.25;;;;;;;;;;5075422;28;20552;-66
2022/01/26 01:46:32;;;;;;;21.75;7.95;;;;;;;;;;5093742;28;20060;-66
2022/01/26 01:48:58;;;;;;;18.65;8.20;;;;;;;;;;5093919;28;20028;-66
2022/01/26 01:51:30;;;;;;;19.60;8.80;;;;;;;;;;5093524;28;20032;-66
2022/01/26 01:53:56;;;;;;;18.42;8.43;;;;;;;;;;5094061;28;20432;-66
2022/01/26 01:56:25;;;;;;;17.52;9.32;;;;;;;;;;5093818;28;20024;-66
2022/01/26 01:58:52;;;;;;;17.05;9.43;;;;;;;;;;5093310;28;20107;-66
2022/01/26 02:01:18;;;;;;;18.95;9.43;;;;;;;;;;5093641;28;20031;-66
2022/01/26 02:03:45;;;;;;;20.33;9.70;;;;;;;;;;5093705;28;20043;-66
2022/01/26 02:06:11;;;;;;;22.77;9.60;;;;;;;;;;5093287;28;20050;-66
2022/01/26 02:08:37;;;;;;;20.08;9.40;;;;;;;;;;5093703;28;20024;-66
2022/01/26 02:11:06;;;;;;;22.27;9.55;;;;;;;;;;5093520;28;20024;-66
2022/01/26 02:13:40;;;;;;;22.02;9.52;;;;;;;;;;5093041;28;20013;-66
2022/01/26 02:16:22;;;;;;;16.02;7.65;;;;;;;;;;5093550;28;20027;-66
2022/01/26 02:49:37;;;;;;;16.42;8.52;;;;;;;;;;5097259;28;20054;-66
2022/01/26 02:49:43;;;;;;;18.85;8.65;;;;;;;;;;5093066;28;20495;-66
2022/01/26 02:57:41;;;;;;;15.48;7.53;;;;;;;;;;5097178;28;20034;-66
2022/01/26 03:02:44;;;;;;;16.65;7.40;;;;;;;;;;5096646;28;20609;-67
2022/01/26 03:05:13;;;;;;;22.52;10.27;;;;;;;;;;5097162;28;20545;-66
2022/01/26 03:07:44;;;;;;;19.60;8.88;;;;;;;;;;5096629;28;20020;-66
2022/01/26 03:10:20;;;;;;;19.30;10.52;;;;;;;;;;5096998;28;20123;-66
2022/01/26 03:12:59;;;;;;;37.03;14.40;;;;;;;;;;5097072;28;20017;-66
2022/01/26 03:15:34;;;;;;;24.38;11.38;;;;;;;;;;5096682;28;20027;-66
2022/01/26 03:20:47;;;;;;;24.45;11.45;;;;;;;;;;5096808;28;20043;-66
2022/01/26 03:28:48;;;;;;;20.27;7.43;;;;;;;;;;5096154;28;20055;-66
2022/01/26 03:34:09;;;;;;;22.42;8.68;;;;;;;;;;5096490;28;20487;-66
2022/01/26 03:36:43;;;;;;;29.10;10.32;;;;;;;;;;5096477;28;20028;-66
2022/01/26 03:39:11;;;;;;;27.10;10.45;;;;;;;;;;5096581;28;20127;-66
2022/01/26 03:41:41;;;;;;;18.98;9.30;;;;;;;;;;5096364;28;20118;-65
2022/01/26 03:44:08;;;;;;;19.08;8.93;;;;;;;;;;5095806;28;20024;-66
2022/01/26 03:46:35;;;;;;;17.42;8.65;;;;;;;;;;5077891;28;20036;-66
2022/01/26 03:49:01;;;;;;;22.50;9.40;;;;;;;;;;5096094;28;20133;-66
2022/01/26 03:51:28;;;;;;;17.33;8.77;;;;;;;;;;5095738;28;20031;-66
2022/01/26 03:53:54;;;;;;;17.85;7.15;;;;;;;;;;5096085;28;20016;-66
2022/01/26 03:56:21;;;;;;;13.75;7.55;;;;;;;;;;5096020;28;20038;-66
2022/01/26 03:58:47;;;;;;;17.98;8.68;;;;;;;;;;5095877;28;20024;-66
2022/01/26 04:01:13;;;;;;;19.95;7.75;;;;;;;;;;5095959;28;20546;-66
2022/01/26 04:03:39;;;;;;;22.77;9.05;;;;;;;;;;5095884;28;20107;-66
2022/01/26 04:06:05;;;;;;;35.33;12.23;;;;;;;;;;5095544;28;20028;-67
2022/01/26 04:08:33;;;;;;;29.15;11.65;;;;;;;;;;5096092;28;20024;-67
2022/01/26 04:13:59;;;;;;;27.48;11.35;;;;;;;;;;5050872;28;20444;-66
2022/01/26 04:16:25;;;;;;;22.90;10.32;;;;;;;;;;5095702;28;20021;-66
2022/01/26 04:18:53;;;;;;;23.05;9.73;;;;;;;;;;5095191;28;20054;-66
2022/01/26 04:23:52;;;;;;;16.95;9.05;;;;;;;;;;5095561;28;20104;-66
2022/01/26 04:26:19;;;;;;;19.88;9.32;;;;;;;;;;5095162;28;20035;-66
2022/01/26 04:28:54;;;;;;;35.25;14.75;;;;;;;;;;5095334;28;20353;-66
2022/01/26 04:31:22;;;;;;;33.50;15.70;;;;;;;;;;5095486;28;20031;-66
2022/01/26 04:33:49;;;;;;;34.88;16.30;;;;;;;;;;5094921;28;20386;-66
2022/01/26 04:36:22;;;;;;;30.95;13.32;;;;;;;;;;5095842;28;20021;-66
2022/01/26 04:38:53;;;;;;;21.67;12.10;;;;;;;;;;5095649;28;20506;-66
2022/01/26 04:41:32;;;;;;;24.15;11.82;;;;;;;;;;5094875;28;20099;-66
2022/01/26 04:44:05;;;;;;;32.67;15.75;;;;;;;;;;5095268;28;20149;-66
2022/01/26 04:46:32;;;;;;;40.53;15.98;;;;;;;;;;5094707;28;20044;-66
2022/01/26 04:48:58;;;;;;;44.40;14.50;;;;;;;;;;5094971;28;20028;-66
2022/01/26 04:51:24;;;;;;;40.22;15.43;;;;;;;;;;5094499;28;20028;-67
2022/01/26 04:53:50;;;;;;;31.48;12.85;;;;;;;;;;5076459;28;20021;-67
2022/01/26 04:56:17;;;;;;;19.77;8.52;;;;;;;;;;5094989;28;20094;-66
2022/01/26 04:58:43;;;;;;;21.88;8.65;;;;;;;;;;5094850;28;20024;-66
2022/01/26 05:01:10;;;;;;;30.90;11.88;;;;;;;;;;5094464;28;20024;-66
2022/01/26 05:03:36;;;;;;;32.35;12.73;;;;;;;;;;5094964;28;20044;-66
2022/01/26 05:06:02;;;;;;;23.05;11.85;;;;;;;;;;5094974;28;20433;-66
2022/01/26 05:08:28;;;;;;;18.15;8.43;;;;;;;;;;5076152;28;20024;-66
2022/01/26 05:10:55;;;;;;;24.23;9.82;;;;;;;;;;5094678;28;20032;-68
2022/01/26 05:13:21;;;;;;;25.52;11.50;;;;;;;;;;5094527;28;20028;-65
2022/01/26 05:15:47;;;;;;;21.30;10.00;;;;;;;;;;5094096;28;20051;-65
2022/01/26 05:18:14;;;;;;;20.38;9.70;;;;;;;;;;5094491;28;20521;-66
2022/01/26 05:20:40;;;;;;;27.27;12.25;;;;;;;;;;5094536;28;20374;-68
2022/01/26 05:23:08;;;;;;;38.88;17.10;;;;;;;;;;5093989;28;20039;-67
2022/01/26 05:25:34;;;;;;;39.22;17.92;;;;;;;;;;5094332;28;20095;-67
2022/01/26 05:28:01;;;;;;;33.10;16.52;;;;;;;;;;5094510;28;20105;-67
2022/01/26 05:30:27;;;;;;;34.58;17.13;;;;;;;;;;5093813;28;20028;-67
2022/01/26 05:32:53;;;;;;;29.60;14.77;;;;;;;;;;5094572;28;20464;-67
2022/01/26 05:35:20;;;;;;;32.70;17.05;;;;;;;;;;5093699;28;20052;-67
2022/01/26 05:37:47;;;;;;;39.05;19.33;;;;;;;;;;5094276;28;20047;-68
2022/01/26 05:40:13;;;;;;;45.97;22.38;;;;;;;;;;5094107;28;20472;-67
2022/01/26 05:42:41;;;;;;;47.92;24.58;;;;;;;;;;5093622;28;20030;-68
2022/01/26 05:45:17;;;;;;;40.40;22.58;;;;;;;;;;5094359;28;20020;-67
2022/01/26 05:47:43;;;;;;;41.90;22.33;;;;;;;;;;5094262;28;20111;-67
2022/01/26 05:50:10;;;;;;;70.22;33.40;;;;;;;;;;5093446;28;20039;-67
2022/01/26 05:52:36;;;;;;;62.53;29.23;;;;;;;;;;5093880;28;20016;-67
2022/01/26 05:55:02;;;;;;;75.13;35.63;;;;;;;;;;5093833;28;20035;-67
2022/01/26 05:57:28;;;;;;;72.57;32.95;;;;;;;;;;5093414;28;20511;-67
2022/01/26 05:59:55;;;;;;;90.32;41.40;;;;;;;;;;5093830;28;20099;-66
2022/01/26 06:02:22;;;;;;;103.20;40.08;;;;;;;;;;5093534;28;20126;-66
2022/01/26 06:04:48;;;;;;;56.72;26.10;;;;;;;;;;5092571;28;20051;-66
2022/01/26 06:07:14;;;;;;;53.17;23.77;;;;;;;;;;5093629;28;20051;-67
2022/01/26 06:09:40;;;;;;;45.17;21.90;;;;;;;;;;5093824;28;20549;-66
2022/01/26 06:12:07;;;;;;;35.83;17.98;;;;;;;;;;5093233;28;20024;-66
2022/01/26 06:14:33;;;;;;;41.33;21.00;;;;;;;;;;5093557;28;20058;-66
2022/01/26 06:16:59;;;;;;;57.25;27.08;;;;;;;;;;5075705;28;20431;-66
2022/01/26 06:19:25;;;;;;;40.70;21.65;;;;;;;;;;5093029;28;20031;-66
2022/01/26 06:21:51;;;;;;;41.38;21.13;;;;;;;;;;5093641;28;20021;-66
2022/01/26 06:24:18;;;;;;;42.22;21.40;;;;;;;;;;5093480;28;20020;-66
2022/01/26 06:26:44;;;;;;;55.60;29.02;;;;;;;;;;5093056;28;20061;-66
2022/01/26 06:29:10;;;;;;;62.90;30.23;;;;;;;;;;5093421;28;20428;-66
2022/01/26 06:31:40;;;;;;;66.82;33.47;;;;;;;;;;5093090;28;20384;-67
2022/01/26 06:34:08;;;;;;;61.70;29.13;;;;;;;;;;5075742;28;20399;-66
2022/01/26 06:36:35;;;;;;;57.63;25.98;;;;;;;;;;5093793;28;20484;-66
2022/01/26 06:39:02;;;;;;;53.67;24.98;;;;;;;;;;5093095;28;20048;-66
2022/01/26 06:41:28;;;;;;;54.90;23.02;;;;;;;;;;5093384;28;20020;-67
2022/01/26 06:44:03;;;;;;;43.67;21.75;;;;;;;;;;5075156;28;20104;-67
2022/01/26 06:46:41;;;;;;;39.53;18.83;;;;;;;;;;5092889;28;20044;-67
2022/01/26 06:51:50;;;;;;;36.25;17.10;;;;;;;;;;5093378;28;20076;-68
2022/01/26 06:54:16;;;;;;;34.00;15.48;;;;;;;;;;5093145;28;20064;-67
2022/01/26 06:56:42;;;;;;;23.45;11.43;;;;;;;;;;5093372;28;20480;-68
2022/01/26 06:59:08;;;;;;;32.92;17.45;;;;;;;;;;5093291;28;20020;-67
2022/01/26 07:01:35;;;;;;;26.98;15.80;;;;;;;;;;5092825;28;20031;-66
2022/01/26 07:04:01;;;;;;;30.52;15.93;;;;;;;;;;5093102;28;20016;-66
2022/01/26 07:06:27;;;;;;;25.05;13.32;;;;;;;;;;5093090;28;20085;-67
2022/01/26 07:08:54;;;;;;;36.42;17.73;;;;;;;;;;5092602;28;20534;-68
2022/01/26 07:11:20;;;;;;;34.45;17.33;;;;;;;;;;5093094;28;20032;-67
2022/01/26 07:13:46;;;;;;;32.63;16.08;;;;;;;;;;5074501;28;20499;-67
2022/01/26 07:21:42;;;;;;;30.92;15.52;;;;;;;;;;5096401;28;20039;-67
2022/01/26 07:24:08;;;;;;;32.85;15.48;;;;;;;;;;5096682;28;20024;-67
2022/01/26 07:26:36;;;;;;;48.63;26.90;;;;;;;;;;5078395;28;20103;-67
2022/01/26 07:29:07;;;;;;;49.40;26.55;;;;;;;;;;5096179;28;20161;-67
2022/01/26 07:31:36;;;;;;;52.40;24.73;;;;;;;;;;5096707;28;20027;-68
2022/01/26 07:34:02;;;;;;;66.40;36.70;;;;;;;;;;5096639;28;20024;-67
2022/01/26 07:36:28;;;;;;;62.90;34.53;;;;;;;;;;5096039;28;20032;-67
2022/01/26 07:39:04;;;;;;;36.20;19.00;;;;;;;;;;5096351;28;20020;-67
2022/01/26 07:41:30;;;;;;;30.02;17.33;;;;;;;;;;5096488;28;20020;-67
2022/01/26 07:43:56;;;;;;;37.28;17.88;;;;;;;;;;5095912;28;20473;-67
2022/01/26 07:46:24;;;;;;;66.22;27.02;;;;;;;;;;5074508;28;20048;-67
2022/01/26 07:48:51;;;;;;;329.33;297.73;;;;;;;;;;5068941;28;20016;-67
2022/01/26 07:51:20;;;;;;;87.18;58.53;;;;;;;;;;5074069;28;20027;-67
2022/01/26 07:53:47;;;;;;;15.93;8.10;;;;;;;;;;5075429;28;20021;-67
2022/01/26 07:56:14;;;;;;;21.17;9.07;;;;;;;;;;5061103;28;20772;-67
2022/01/26 07:58:41;;;;;;;438.75;379.45;;;;;;;;;;5047221;28;20033;-67
2022/01/26 08:01:08;;;;;;;56.05;51.08;;;;;;;;;;5071799;28;20083;-66
2022/01/26 08:03:34;;;;;;;41.90;15.93;;;;;;;;;;5073103;28;20031;-66
2022/01/26 08:06:04;;;;;;;45.75;17.58;;;;;;;;;;5074956;28;20107;-66
2022/01/26 08:08:31;;;;;;;37.30;20.48;;;;;;;;;;5073934;28;20043;-67
2022/01/26 08:10:58;;;;;;;111.90;101.20;;;;;;;;;;5072967;28;20503;-65
2022/01/26 08:13:25;;;;;;;27.80;14.73;;;;;;;;;;5074011;28;20025;-65
2022/01/26 08:15:56;;;;;;;40.00;17.08;;;;;;;;;;5075177;28;20032;-66
2022/01/26 08:18:24;;;;;;;35.58;16.77;;;;;;;;;;5074453;28;20056;-66
2022/01/26 08:20:50;;;;;;;20.95;10.18;;;;;;;;;;5075072;28;20470;-66
2022/01/26 08:23:19;;;;;;;164.88;150.70;;;;;;;;;;5075166;28;20389;-67
2022/01/26 08:25:45;;;;;;;64.43;55.72;;;;;;;;;;5073531;28;20024;-67
2022/01/26 08:28:21;;;;;;;32.85;19.73;;;;;;;;;;5074759;28;20024;-67
2022/01/26 08:30:48;;;;;;;20.20;11.45;;;;;;;;;;5073472;28;20113;-67
2022/01/26 08:33:14;;;;;;;17.88;10.02;;;;;;;;;;5070558;28;20021;-66
2022/01/26 08:35:41;;;;;;;19.55;11.35;;;;;;;;;;5074694;28;20052;-65
2022/01/26 08:38:07;;;;;;;28.90;13.13;;;;;;;;;;5074339;28;20494;-66
2022/01/26 08:40:34;;;;;;;29.77;14.63;;;;;;;;;;5072852;28;20028;-64
2022/01/26 08:43:00;;;;;;;30.77;16.73;;;;;;;;;;5066347;28;20052;-65
2022/01/26 08:45:27;;;;;;;30.92;17.25;;;;;;;;;;5069220;28;20020;-67
2022/01/26 08:47:53;;;;;;;40.08;18.65;;;;;;;;;;5072220;28;20040;-66
2022/01/26 08:50:19;;;;;;;41.13;21.17;;;;;;;;;;5074359;28;20032;-66
2022/01/26 08:52:47;;;;;;;44.22;20.75;;;;;;;;;;5073068;28;20417;-66
2022/01/26 08:55:13;;;;;;;92.10;68.07;;;;;;;;;;5076048;28;20392;-67
2022/01/26 08:57:40;;;;;;;96.18;70.97;;;;;;;;;;5094234;28;20028;-67
2022/01/26 09:00:07;;;;;;;30.85;15.68;;;;;;;;;;5093945;28;20430;-67
2022/01/26 09:02:34;;;;;;;24.13;13.23;;;;;;;;;;5093641;28;20419;-67
2022/01/26 09:05:00;;;;;;;32.55;14.98;;;;;;;;;;5094141;28;20028;-67
2022/01/26 09:07:27;;;;;;;28.67;15.90;;;;;;;;;;5093708;28;20148;-66
2022/01/26 09:09:55;;;;;;;29.27;12.52;;;;;;;;;;5093354;28;20111;-67
2022/01/26 09:12:24;;;;;;;18.55;10.05;;;;;;;;;;5093082;28;20039;-66
2022/01/26 09:14:50;;;;;;;41.70;34.60;;;;;;;;;;5093128;28;20464;-66
2022/01/26 09:17:17;;;;;;;23.98;12.13;;;;;;;;;;5093275;28;20099;-66
2022/01/26 09:19:45;;;;;;;76.00;61.22;;;;;;;;;;5092630;28;20863;-66
2022/01/26 09:22:12;;;;;;;37.15;17.35;;;;;;;;;;5093580;28;20028;-67
2022/01/26 09:24:39;;;;;;;38.28;16.05;;;;;;;;;;5075944;28;20016;-68
2022/01/26 09:27:06;;;;;;;47.35;36.55;;;;;;;;;;5093863;28;20024;-67
2022/01/26 09:29:34;;;;;;;131.35;118.55;;;;;;;;;;5093654;28;20105;-67
2022/01/26 09:32:00;;;;;;;42.88;38.38;;;;;;;;;;5094142;28;20044;-67
2022/01/26 09:34:28;;;;;;;16.17;8.25;;;;;;;;;;5093575;28;20365;-65
2022/01/26 09:36:55;;;;;;;17.92;8.20;;;;;;;;;;5093782;28;20069;-67
2022/01/26 09:39:22;;;;;;;142.57;126.60;;;;;;;;;;5075624;28;20054;-66
2022/01/26 09:41:50;;;;;;;156.40;136.18;;;;;;;;;;5093368;28;20098;-66
2022/01/26 09:44:17;;;;;;;123.43;96.05;;;;;;;;;;5093980;28;20024;-66
2022/01/26 09:46:43;;;;;;;19.08;9.25;;;;;;;;;;5092879;28;20047;-69
2022/01/26 09:49:10;;;;;;;109.93;93.88;;;;;;;;;;5092234;28;20056;-66
2022/01/26 09:51:42;;;;;;;118.28;92.72;;;;;;;;;;5092451;28;20028;-66
2022/01/26 09:54:12;;;;;;;126.47;97.33;;;;;;;;;;5074766;28;20032;-67
2022/01/26 09:56:39;;;;;;;25.38;17.35;;;;;;;;;;5092661;28;20027;-67
2022/01/26 09:59:06;;;;;;;49.38;39.53;;;;;;;;;;5091756;28;20028;-65
2022/01/26 10:01:41;;;;;;;76.38;68.43;;;;;;;;;;5090905;28;20024;-67
2022/01/26 10:04:18;;;;;;;134.15;116.20;;;;;;;;;;5091600;28;20053;-68
2022/01/26 10:06:44;;;;;;;46.58;41.75;;;;;;;;;;5092717;28;20031;-67
2022/01/26 10:15:49;;;;;;;28.92;16.08;;;;;;;;;;5093267;28;20038;-66
2022/01/26 10:17:45;;;;;;;23.25;13.65;;;;;;;;;;5078217;28;20384;-67
2022/01/26 10:20:17;;;;;;;25.05;11.02;;;;;;;;;;5074806;28;20024;-65
2022/01/26 10:22:44;;;;;;;26.45;14.95;;;;;;;;;;5092837;28;20054;-67
2022/01/26 10:25:12;;;;;;;23.95;13.57;;;;;;;;;;5092636;28;20494;-67
2022/01/26 10:27:42;;;;;;;26.92;13.73;;;;;;;;;;5093099;28;20376;-67
2022/01/26 10:30:11;;;;;;;25.35;12.68;;;;;;;;;;5092960;28;20085;-65
2022/01/26 10:32:38;;;;;;;25.58;13.60;;;;;;;;;;5092828;28;20395;-67
2022/01/26 10:35:05;;;;;;;21.83;9.88;;;;;;;;;;5093166;28;20361;-68
2022/01/26 10:37:32;;;;;;;27.52;11.52;;;;;;;;;;5093142;28;20020;-67
2022/01/26 10:40:13;;;;;;;20.85;9.85;;;;;;;;;;5093031;28;20384;-70
2022/01/26 10:42:40;;;;;;;18.73;10.77;;;;;;;;;;5092994;28;20094;-70
2022/01/26 10:47:36;;;;;;;19.63;8.43;;;;;;;;;;5092959;28;20090;-69
2022/01/26 10:50:31;;;;;;;14.00;6.97;;;;;;;;;;5095286;28;20039;-68
2022/01/26 10:53:06;;;;;;;16.92;6.72;;;;;;;;;;5096689;28;20012;-68
2022/01/26 10:55:33;;;;;;;19.23;6.75;;;;;;;;;;5097216;28;20411;-68
2022/01/26 10:58:00;;;;;;;20.35;9.70;;;;;;;;;;5097131;28;20432;-68
2022/01/26 11:00:26;;;;;;;15.75;7.28;;;;;;;;;;5096956;28;20495;-69
2022/01/26 11:02:57;;;;;;;23.63;8.20;;;;;;;;;;5096490;28;20028;-68
2022/01/26 11:05:24;;;;;;;17.60;8.18;;;;;;;;;;5097261;28;20121;-68
2022/01/26 11:07:50;;;;;;;14.45;8.65;;;;;;;;;;5078056;28;20026;-68
2022/01/26 11:10:17;;;;;;;18.08;8.40;;;;;;;;;;5096601;28;20036;-68
2022/01/26 11:12:44;;;;;;;26.92;13.45;;;;;;;;;;5096956;28;20016;-66
2022/01/26 11:15:14;;;;;;;18.60;10.07;;;;;;;;;;5096447;28;20180;-67
2022/01/26 11:17:46;;;;;;;16.17;8.80;;;;;;;;;;5078728;28;20154;-68
2022/01/26 11:20:30;;;;;;;19.40;7.82;;;;;;;;;;5096598;28;20024;-68
2022/01/26 11:22:57;;;;;;;23.88;9.82;;;;;;;;;;5097028;28;20097;-68
2022/01/26 11:25:24;;;;;;;18.55;9.95;;;;;;;;;;5096973;28;20610;-69
2022/01/26 11:27:52;;;;;;;23.15;11.90;;;;;;;;;;5096310;28;20043;-69
2022/01/26 11:30:27;;;;;;;20.38;8.88;;;;;;;;;;5096585;28;20370;-68
2022/01/26 11:33:02;;;;;;;19.67;9.13;;;;;;;;;;5096641;28;20465;-69
2022/01/26 11:35:37;;;;;;;22.83;9.50;;;;;;;;;;5096158;28;20434;-69
2022/01/26 11:38:14;;;;;;;29.15;13.10;;;;;;;;;;5096696;28;20523;-68
2022/01/26 11:46:22;;;;;;;17.58;8.43;;;;;;;;;;5096374;28;20063;-68
2022/01/26 11:48:58;;;;;;;16.05;7.20;;;;;;;;;;5096067;28;20016;-69
2022/01/26 11:51:24;;;;;;;17.20;6.43;;;;;;;;;;5096291;28;20072;-69
2022/01/26 11:53:51;;;;;;;18.02;8.52;;;;;;;;;;5096178;28;20024;-69
2022/01/26 11:56:21;;;;;;;15.02;6.72;;;;;;;;;;5095630;28;20054;-68
2022/01/26 11:58:50;;;;;;;15.77;7.47;;;;;;;;;;5096127;28;20489;-68
2022/01/26 12:01:24;;;;;;;10.73;5.30;;;;;;;;;;5095282;28;20032;-68
2022/01/26 12:04:02;;;;;;;16.70;7.88;;;;;;;;;;5095687;28;20028;-68
2022/01/26 12:06:29;;;;;;;19.08;7.85;;;;;;;;;;5095971;28;20065;-68
2022/01/26 12:08:58;;;;;;;24.77;10.40;;;;;;;;;;5095952;28;20510;-68
2022/01/26 12:11:28;;;;;;;21.45;9.30;;;;;;;;;;5095438;28;20023;-68
2022/01/26 12:13:59;;;;;;;21.00;10.90;;;;;;;;;;5096005;28;20016;-68
2022/01/26 12:16:32;;;;;;;24.42;9.93;;;;;;;;;;5095543;28;20028;-69
2022/01/26 12:19:11;;;;;;;;;;;;;;;;;;5096497;28;20020;-68
2022/01/26 12:35:26;;;;;;;27.48;12.30;;;;;;;;;;5095452;28;20035;-69
2022/01/26 12:43:11;;;;;;;19.00;10.32;;;;;;;;;;5095584;28;20093;-69
2022/01/26 12:45:37;;;;;;;25.98;11.60;;;;;;;;;;5076504;28;20541;-68
2022/01/26 12:48:07;;;;;;;36.25;16.58;;;;;;;;;;5095344;28;20020;-68
2022/01/26 12:50:33;;;;;;;22.85;11.93;;;;;;;;;;5095164;28;20032;-68
2022/01/26 12:53:00;;;;;;;23.35;11.52;;;;;;;;;;5094752;28;20020;-68
2022/01/26 12:55:27;;;;;;;34.75;17.23;;;;;;;;;;5094923;28;20492;-68
2022/01/26 12:57:54;;;;;;;33.78;13.90;;;;;;;;;;5094986;28;20027;-69
2022/01/26 13:00:21;;;;;;;18.58;9.93;;;;;;;;;;5094478;28;20020;-69
2022/01/26 13:02:48;;;;;;;20.23;11.15;;;;;;;;;;5095008;28;20026;-69
2022/01/26 13:05:15;;;;;;;26.98;13.82;;;;;;;;;;5094837;28;20031;-69
2022/01/26 13:07:42;;;;;;;29.38;13.10;;;;;;;;;;5094371;28;20529;-69
2022/01/26 13:10:15;;;;;;;40.83;19.27;;;;;;;;;;5094687;28;20032;-69
2022/01/26 13:12:41;;;;;;;;;;;;;;;;;;5076065;28;20028;-68
2022/01/26 13:15:17;;;;;;;31.77;16.45;;;;;;;;;;5094713;28;19911;-69
2022/01/26 13:18:03;;;;;;;31.10;13.25;;;;;;;;;;5094796;28;20375;-68
2022/01/26 13:25:46;;;;;;;24.90;13.13;;;;;;;;;;5094395;28;20392;-68
2022/01/26 13:51:48;;;;;;;204.15;158.45;;;;;;;;;;5094038;28;20468;-69
2022/01/26 13:59:32;;;;;;;460.55;415.00;;;;;;;;;;5073589;28;20484;-68
2022/01/26 14:01:59;;;;;;;;;;;;;;;;;;5074173;28;20024;-68
2022/01/26 14:04:25;;;;;;;404.20;362.75;;;;;;;;;;5073879;28;19904;-68
2022/01/26 14:06:51;;;;;;;272.77;236.18;;;;;;;;;;5073519;28;20354;-69
2022/01/26 14:09:18;;;;;;;38.05;22.13;;;;;;;;;;5073208;28;20051;-69
2022/01/26 14:11:48;;;;;;;32.72;20.70;;;;;;;;;;5073381;28;20078;-68
2022/01/26 14:14:22;;;;;;;29.38;14.70;;;;;;;;;;5073667;28;20035;-68
2022/01/26 14:16:56;;;;;;;42.90;21.58;;;;;;;;;;5071753;28;20024;-67
2022/01/26 14:19:38;;;;;;;34.08;19.48;;;;;;;;;;5073663;28;20025;-68
2022/01/26 14:22:28;;;;;;;255.63;229.88;;;;;;;;;;5073364;28;20104;-68
2022/01/26 14:27:42;;;;;;;29.85;16.05;;;;;;;;;;5073248;28;20046;-68
2022/01/26 15:19:18;;;;;;;218.18;200.25;;;;;;;;;;5072660;28;20191;-67
2022/01/26 15:35:26;;;;;;;22.48;12.07;;;;;;;;;;5072393;28;20370;-67
2022/01/26 15:41:15;;;;;;;54.95;50.10;;;;;;;;;;5033673;28;20041;-67
2022/01/26 15:43:54;;;;;;;21.92;12.60;;;;;;;;;;5034458;28;20033;-68
2022/01/26 15:49:31;;;;;;;28.38;14.63;;;;;;;;;;5075645;28;20035;-68
2022/01/26 15:57:33;;;;;;;30.50;14.02;;;;;;;;;;5075929;28;20512;-69
2022/01/26 16:05:56;;;;;;;31.88;18.02;;;;;;;;;;5075991;28;20039;-69
2022/01/26 16:17:11;;;;;;;30.92;16.70;;;;;;;;;;5063441;28;20048;-68
2022/01/26 17:25:28;;;;;;;34.92;25.10;;;;;;;;;;5074208;28;20162;-69
2022/01/26 17:34:32;;;;;;;124.57;114.35;;;;;;;;;;5073628;28;20033;-69
2022/01/26 18:15:19;;;;;;;24.13;12.38;;;;;;;;;;5073518;28;20032;-68
2022/01/26 18:33:15;;;;;;;37.20;19.92;;;;;;;;;;5071431;28;20511;-69
2022/01/26 18:49:11;;;;;;;39.13;19.42;;;;;;;;;;5048065;28;20049;-68
2022/01/26 18:49:37;;;;;;;38.33;20.98;;;;;;;;;;5072662;28;20033;-68
2022/01/26 18:52:03;;;;;;;22.80;15.38;;;;;;;;;;5072797;28;20477;-68
2022/01/26 18:54:37;;;;;;;41.47;19.70;;;;;;;;;;5073429;28;20029;-68
2022/01/26 18:57:05;;;;;;;36.13;22.85;;;;;;;;;;5073107;28;20086;-69
2022/01/26 18:59:31;;;;;;;55.42;46.30;;;;;;;;;;5071571;28;20035;-68
2022/01/26 19:01:57;;;;;;;28.00;16.55;;;;;;;;;;5073304;28;20393;-68
2022/01/26 19:04:28;;;;;;;26.25;14.43;;;;;;;;;;5072605;28;20056;-68
2022/01/26 19:06:55;;;;;;;37.17;19.92;;;;;;;;;;5073040;28;20023;-68
2022/01/26 19:09:24;;;;;;;30.92;16.00;;;;;;;;;;5072903;28;20029;-68
2022/01/26 19:11:51;;;;;;;24.10;15.80;;;;;;;;;;5075418;28;20032;-68
2022/01/26 19:14:18;;;;;;;30.95;16.92;;;;;;;;;;5076907;28;20020;-68
2022/01/26 19:16:54;;;;;;;29.13;15.10;;;;;;;;;;5076662;28;20025;-68
2022/01/26 19:27:49;;;;;;;35.70;18.20;;;;;;;;;;5076100;28;20021;-68
2022/01/26 19:40:19;;;;;;;22.52;10.95;;;;;;;;;;5076925;28;20583;-68
2022/01/26 19:52:07;;;;;;;27.58;13.13;;;;;;;;;;5075992;28;20051;-68
2022/01/26 19:54:34;;;;;;;20.90;12.52;;;;;;;;;;5074416;28;20054;-68
2022/01/26 19:57:00;;;;;;;23.60;12.30;;;;;;;;;;5076002;28;20038;-69
2022/01/26 19:59:27;;;;;;;19.05;11.13;;;;;;;;;;5076195;28;20024;-68
2022/01/26 20:01:53;;;;;;;19.77;10.38;;;;;;;;;;5075364;28;20571;-69
2022/01/26 20:04:20;;;;;;;17.17;10.75;;;;;;;;;;5075730;28;20024;-69
2022/01/26 20:06:47;;;;;;;28.70;12.70;;;;;;;;;;5075761;28;20017;-67
2022/01/26 20:09:22;;;;;;;21.63;12.25;;;;;;;;;;5075244;28;20017;-67
2022/01/26 20:12:00;;;;;;;26.02;14.40;;;;;;;;;;5075927;28;20583;-68
2022/01/26 20:14:32;;;;;;;26.58;14.73;;;;;;;;;;5075770;28;20549;-67
2022/01/26 20:17:03;;;;;;;42.35;21.42;;;;;;;;;;5075960;28;20032;-67
2022/01/26 20:19:29;;;;;;;51.25;25.02;;;;;;;;;;5074251;28;20146;-67
2022/01/26 20:21:55;;;;;;;56.90;29.08;;;;;;;;;;5074037;28;20052;-68
2022/01/26 20:24:22;;;;;;;58.35;29.75;;;;;;;;;;5075292;28;20027;-68
2022/01/26 20:26:50;;;;;;;45.35;23.10;;;;;;;;;;5074220;28;20028;-69
2022/01/26 20:29:16;;;;;;;34.72;17.02;;;;;;;;;;5075000;28;20013;-67
2022/01/26 20:31:43;;;;;;;30.38;16.67;;;;;;;;;;5074034;28;20036;-67
2022/01/26 20:34:10;;;;;;;39.72;17.42;;;;;;;;;;5075471;28;20024;-68
2022/01/26 20:36:36;;;;;;;36.60;17.45;;;;;;;;;;5075184;28;20028;-67
2022/01/26 20:39:04;;;;;;;27.73;14.38;;;;;;;;;;5075539;28;20025;-68
2022/01/26 20:41:31;;;;;;;25.63;13.35;;;;;;;;;;5075794;28;20103;-68
2022/01/26 20:43:57;;;;;;;26.85;12.57;;;;;;;;;;5074729;28;20025;-68
2022/01/26 20:46:23;;;;;;;32.38;13.93;;;;;;;;;;5073669;28;20469;-68
2022/01/26 20:48:49;;;;;;;34.53;13.35;;;;;;;;;;5074966;28;20527;-68
2022/01/26 20:51:16;;;;;;;24.70;11.18;;;;;;;;;;5074577;28;20498;-69
2022/01/26 20:53:43;;;;;;;31.65;15.23;;;;;;;;;;5075469;28;20025;-68
2022/01/26 20:56:10;;;;;;;22.88;10.88;;;;;;;;;;5075147;28;20095;-68
2022/01/26 20:58:36;;;;;;;20.90;11.57;;;;;;;;;;5074472;28;20051;-68
2022/01/26 21:01:03;;;;;;;23.23;12.10;;;;;;;;;;5074865;28;20021;-68
2022/01/26 21:03:30;;;;;;;33.10;16.58;;;;;;;;;;5074820;28;20025;-68
2022/01/26 21:05:56;;;;;;;32.97;15.20;;;;;;;;;;5074236;28;20020;-68
2022/01/26 21:08:22;;;;;;;32.60;16.35;;;;;;;;;;5074815;28;20021;-68
2022/01/26 21:10:49;;;;;;;25.67;13.45;;;;;;;;;;5074101;28;20504;-68
2022/01/26 21:13:16;;;;;;;24.88;12.73;;;;;;;;;;5074430;28;20021;-68
2022/01/26 21:15:42;;;;;;;29.33;14.90;;;;;;;;;;5074624;28;20029;-68
2022/01/26 21:18:08;;;;;;;37.53;17.38;;;;;;;;;;5074225;28;20039;-68
2022/01/26 21:20:37;;;;;;;37.90;16.00;;;;;;;;;;5074571;28;20028;-68
2022/01/26 21:23:04;;;;;;;42.60;22.02;;;;;;;;;;5074155;28;20027;-68